sensor_id;sensor_type;location;lat;lon;timestamp;pressure;altitude;pressure_sealevel;temperature;humidity
34961;BME280;30789;52.030;7.110;2024-03-23T00:54:44;100087.66;;;7.01;100.00
34961;BME280;30789;52.030;7.110;2024-03-23T00:57:10;100082.22;;;7.05;100.00
34961;BME280;30789;52.030;7.110;2024-03-23T00:59:38;100073.53;;;6.99;100.00
34961;BME280;30789;52.030;7.110;2024-03-23T01:02:04;100097.44;;;7.02;100.00
34961;BME280;30789;52.030;7.110;2024-03-23T01:04:30;100091.88;;;6.95;100.00
34961;BME280;30789;52.030;7.110;2024-03-23T01:06:59;100086.00;;;6.93;100.00
34961;BME280;30789;52.030;7.110;2024-03-23T01:09:28;100090.31;;;6.94;100.00
34961;BME280;30789;52.030;7.110;2024-03-23T01:11:54;100084.44;;;6.92;100.00
34961;BME280;30789;52.030;7.110;2024-03-23T01:14:20;100088.34;;;6.94;100.00
34961;BME280;30789;52.030;7.110;2024-03-23T01:16:46;100083.59;;;6.88;100.00
34961;BME280;30789;52.030;7.110;2024-03-23T01:19:13;100080.13;;;6.94;100.00
34961;BME280;30789;52.030;7.110;2024-03-23T01:21:38;100082.47;;;6.92;100.00
34961;BME280;30789;52.030;7.110;2024-03-23T01:24:08;100071.81;;;6.84;100.00
34961;BME280;30789;52.030;7.110;2024-03-23T01:26:40;100061.81;;;7.02;100.00
34961;BME280;30789;52.030;7.110;2024-03-23T01:29:06;100061.69;;;6.88;100.00
34961;BME280;30789;52.030;7.110;2024-03-23T01:31:32;100062.34;;;6.78;100.00
34961;BME280;30789;52.030;7.110;2024-03-23T01:33:59;100067.00;;;6.74;100.00
34961;BME280;30789;52.030;7.110;2024-03-23T01:36:24;100067.44;;;6.76;100.00
34961;BME280;30789;52.030;7.110;2024-03-23T01:38:51;100071.38;;;6.78;100.00
34961;BME280;30789;52.030;7.110;2024-03-23T01:41:17;100058.09;;;6.84;100.00
34961;BME280;30789;52.030;7.110;2024-03-23T01:43:45;100051.88;;;6.83;100.00
34961;BME280;30789;52.030;7.110;2024-03-23T01:46:11;100058.09;;;6.80;100.00
34961;BME280;30789;52.030;7.110;2024-03-23T01:48:38;100057.25;;;6.76;100.00
34961;BME280;30789;52.030;7.110;2024-03-23T01:51:04;100054.50;;;6.76;100.00
34961;BME280;30789;52.030;7.110;2024-03-23T01:53:31;100059.22;;;6.76;100.00
34961;BME280;30789;52.030;7.110;2024-03-23T01:55:57;100053.00;;;6.79;100.00
34961;BME280;30789;52.030;7.110;2024-03-23T01:58:23;100035.75;;;6.78;100.00
34961;BME280;30789;52.030;7.110;2024-03-23T02:00:50;100041.25;;;6.78;100.00
34961;BME280;30789;52.030;7.110;2024-03-23T02:03:23;100045.53;;;6.76;100.00
34961;BME280;30789;52.030;7.110;2024-03-23T02:05:50;100046.34;;;6.80;100.00
34961;BME280;30789;52.030;7.110;2024-03-23T02:08:17;100037.25;;;6.72;100.00
34961;BME280;30789;52.030;7.110;2024-03-23T02:10:43;100038.41;;;6.71;100.00
34961;BME280;30789;52.030;7.110;2024-03-23T02:13:10;100032.19;;;6.74;100.00
34961;BME280;30789;52.030;7.110;2024-03-23T02:15:37;100025.88;;;6.70;100.00
34961;BME280;30789;52.030;7.110;2024-03-23T02:18:06;100022.34;;;6.70;100.00
34961;BME280;30789;52.030;7.110;2024-03-23T02:20:32;100028.25;;;6.72;100.00
34961;BME280;30789;52.030;7.110;2024-03-23T02:23:00;100020.47;;;6.74;100.00
34961;BME280;30789;52.030;7.110;2024-03-23T02:25:26;100030.22;;;6.75;100.00
34961;BME280;30789;52.030;7.110;2024-03-23T02:27:53;100028.38;;;6.82;100.00
34961;BME280;30789;52.030;7.110;2024-03-23T02:30:21;100038.41;;;6.71;100.00
34961;BME280;30789;52.030;7.110;2024-03-23T07:13:33;99969.63;;;6.40;100.00
34961;BME280;30789;52.030;7.110;2024-03-23T07:51:01;99959.38;;;6.66;100.00
34961;BME280;30789;52.030;7.110;2024-03-23T07:53:59;99960.97;;;6.74;100.00
34961;BME280;30789;52.030;7.110;2024-03-23T08:00:07;99956.44;;;6.89;99.99
34961;BME280;30789;52.030;7.110;2024-03-23T08:25:35;99968.31;;;7.51;93.11
34961;BME280;30789;52.030;7.110;2024-03-23T08:28:01;99958.22;;;7.65;91.97
34961;BME280;30789;52.030;7.110;2024-03-23T08:30:28;99952.50;;;7.88;90.35
34961;BME280;30789;52.030;7.110;2024-03-23T08:32:56;99963.50;;;8.02;91.47
34961;BME280;30789;52.030;7.110;2024-03-23T08:35:23;99953.31;;;7.99;87.94
34961;BME280;30789;52.030;7.110;2024-03-23T08:39:58;99950.59;;;8.02;87.81
34961;BME280;30789;52.030;7.110;2024-03-23T08:44:23;99954.00;;;7.82;86.20
34961;BME280;30789;52.030;7.110;2024-03-23T08:46:59;99949.72;;;7.84;85.93
34961;BME280;30789;52.030;7.110;2024-03-23T08:49:30;99950.22;;;8.07;86.12
34961;BME280;30789;52.030;7.110;2024-03-23T08:52:07;99949.94;;;8.23;86.12
34961;BME280;30789;52.030;7.110;2024-03-23T08:54:52;99947.47;;;8.04;81.39
34961;BME280;30789;52.030;7.110;2024-03-23T08:57:47;99950.50;;;7.81;83.20
34961;BME280;30789;52.030;7.110;2024-03-23T09:00:33;99957.59;;;7.93;84.17
34961;BME280;30789;52.030;7.110;2024-03-23T09:03:04;99967.41;;;7.97;82.35
34961;BME280;30789;52.030;7.110;2024-03-23T09:05:45;99955.19;;;7.81;82.78
34961;BME280;30789;52.030;7.110;2024-03-23T09:08:12;99955.19;;;7.84;82.62
34961;BME280;30789;52.030;7.110;2024-03-23T09:10:39;99952.50;;;7.88;83.77
34961;BME280;30789;52.030;7.110;2024-03-23T09:13:08;99955.22;;;7.88;81.20
34961;BME280;30789;52.030;7.110;2024-03-23T09:15:44;99958.75;;;7.88;82.57
34961;BME280;30789;52.030;7.110;2024-03-23T09:18:18;99950.63;;;8.06;83.82
34961;BME280;30789;52.030;7.110;2024-03-23T09:21:02;99951.13;;;8.32;82.14
34961;BME280;30789;52.030;7.110;2024-03-23T09:23:38;99956.31;;;8.62;81.98
34961;BME280;30789;52.030;7.110;2024-03-23T09:26:06;99942.50;;;8.30;79.74
34961;BME280;30789;52.030;7.110;2024-03-23T09:28:36;99946.72;;;8.17;82.69
34961;BME280;30789;52.030;7.110;2024-03-23T09:31:06;99944.94;;;8.53;82.29
34961;BME280;30789;52.030;7.110;2024-03-23T09:33:40;99940.28;;;9.06;81.27
34961;BME280;30789;52.030;7.110;2024-03-23T09:36:11;99941.88;;;8.97;79.46
34961;BME280;30789;52.030;7.110;2024-03-23T09:38:40;99946.56;;;8.82;78.66
34961;BME280;30789;52.030;7.110;2024-03-23T09:41:17;99954.41;;;8.73;76.74
34961;BME280;30789;52.030;7.110;2024-03-23T09:43:53;99951.59;;;8.52;76.37
34961;BME280;30789;52.030;7.110;2024-03-23T09:46:39;99942.19;;;8.53;74.83
34961;BME280;30789;52.030;7.110;2024-03-23T09:49:11;99946.16;;;8.80;75.69
34961;BME280;30789;52.030;7.110;2024-03-23T09:51:48;99936.75;;;8.81;74.44
34961;BME280;30789;52.030;7.110;2024-03-23T09:54:16;99958.72;;;8.85;73.84
34961;BME280;30789;52.030;7.110;2024-03-23T09:57:21;99944.22;;;9.19;72.88
34961;BME280;30789;52.030;7.110;2024-03-23T09:59:51;99930.06;;;9.45;71.71
34961;BME280;30789;52.030;7.110;2024-03-23T10:02:39;99926.84;;;9.82;73.15
34961;BME280;30789;52.030;7.110;2024-03-23T10:05:22;99932.78;;;9.70;68.63
34961;BME280;30789;52.030;7.110;2024-03-23T10:07:56;99922.94;;;9.69;67.42
34961;BME280;30789;52.030;7.110;2024-03-23T10:10:25;99920.16;;;9.90;67.13
34961;BME280;30789;52.030;7.110;2024-03-23T10:12:58;99922.75;;;10.32;67.57
34961;BME280;30789;52.030;7.110;2024-03-23T10:15:27;99914.25;;;10.74;65.67
34961;BME280;30789;52.030;7.110;2024-03-23T10:18:25;99920.03;;;10.90;63.71
34961;BME280;30789;52.030;7.110;2024-03-23T10:21:47;99912.06;;;11.03;64.37
34961;BME280;30789;52.030;7.110;2024-03-23T10:24:21;99916.97;;;10.78;65.08
34961;BME280;30789;52.030;7.110;2024-03-23T10:27:03;99906.78;;;10.71;60.15
34961;BME280;30789;52.030;7.110;2024-03-23T10:29:31;99911.00;;;10.21;62.93
34961;BME280;30789;52.030;7.110;2024-03-23T10:32:17;99893.19;;;10.43;62.22
34961;BME280;30789;52.030;7.110;2024-03-23T10:34:47;99901.22;;;10.78;62.33
34961;BME280;30789;52.030;7.110;2024-03-23T10:37:14;99897.72;;;11.22;59.16
34961;BME280;30789;52.030;7.110;2024-03-23T10:40:07;99906.16;;;10.50;62.53
34961;BME280;30789;52.030;7.110;2024-03-23T10:42:35;99916.56;;;9.96;63.56
34961;BME280;30789;52.030;7.110;2024-03-23T10:45:04;99926.16;;;9.18;64.03
34961;BME280;30789;52.030;7.110;2024-03-23T10:47:40;99910.06;;;8.85;63.85
34961;BME280;30789;52.030;7.110;2024-03-23T10:50:14;99915.75;;;10.06;58.37
34961;BME280;30789;52.030;7.110;2024-03-23T10:52:41;99915.75;;;11.30;54.95
34961;BME280;30789;52.030;7.110;2024-03-23T10:58:11;99918.91;;;12.09;52.10
34961;BME280;30789;52.030;7.110;2024-03-23T10:58:46;99926.69;;;12.78;50.40
34961;BME280;30789;52.030;7.110;2024-03-23T11:01:17;99932.03;;;12.89;49.64
34961;BME280;30789;52.030;7.110;2024-03-23T11:03:48;99929.22;;;12.66;50.05
34961;BME280;30789;52.030;7.110;2024-03-23T11:06:41;99921.56;;;12.77;48.21
34961;BME280;30789;52.030;7.110;2024-03-23T11:11:53;99922.31;;;13.30;48.11
34961;BME280;30789;52.030;7.110;2024-03-23T11:14:23;99925.63;;;13.22;49.23
34961;BME280;30789;52.030;7.110;2024-03-23T11:17:08;99911.63;;;12.26;50.28
34961;BME280;30789;52.030;7.110;2024-03-23T11:19:35;99934.69;;;10.77;56.18
34961;BME280;30789;52.030;7.110;2024-03-23T11:22:11;99922.59;;;9.46;61.46
34961;BME280;30789;52.030;7.110;2024-03-23T11:24:38;99911.25;;;8.84;66.83
34961;BME280;30789;52.030;7.110;2024-03-23T11:27:15;99908.84;;;8.61;68.34
34961;BME280;30789;52.030;7.110;2024-03-23T11:29:54;99916.59;;;9.86;65.39
34961;BME280;30789;52.030;7.110;2024-03-23T11:32:46;99908.09;;;11.04;60.58
34961;BME280;30789;52.030;7.110;2024-03-23T11:35:34;99911.44;;;10.05;62.12
34961;BME280;30789;52.030;7.110;2024-03-23T11:38:26;99921.06;;;9.27;64.58
34961;BME280;30789;52.030;7.110;2024-03-23T11:40:56;99921.44;;;8.87;64.37
34961;BME280;30789;52.030;7.110;2024-03-23T11:43:30;99928.13;;;9.00;66.00
34961;BME280;30789;52.030;7.110;2024-03-23T11:45:58;99922.53;;;8.44;63.90
34961;BME280;30789;52.030;7.110;2024-03-23T11:48:28;99916.72;;;8.91;63.38
34961;BME280;30789;52.030;7.110;2024-03-23T11:50:58;99922.47;;;10.05;58.62
34961;BME280;30789;52.030;7.110;2024-03-23T11:53:27;99914.22;;;10.78;57.19
34961;BME280;30789;52.030;7.110;2024-03-23T11:55:58;99903.56;;;10.14;56.27
34961;BME280;30789;52.030;7.110;2024-03-23T11:58:29;99907.72;;;8.98;61.23
34961;BME280;30789;52.030;7.110;2024-03-23T12:02:37;99939.03;;;8.51;64.88
34961;BME280;30789;52.030;7.110;2024-03-23T12:04:09;99924.13;;;7.63;70.90
34961;BME280;30789;52.030;7.110;2024-03-23T12:06:50;99917.84;;;7.59;73.06
34961;BME280;30789;52.030;7.110;2024-03-23T12:09:25;99918.31;;;9.20;69.71
34961;BME280;30789;52.030;7.110;2024-03-23T12:11:51;99912.69;;;9.83;66.93
34961;BME280;30789;52.030;7.110;2024-03-23T12:14:17;99905.34;;;10.49;64.33
34961;BME280;30789;52.030;7.110;2024-03-23T12:16:43;99909.06;;;10.87;62.92
34961;BME280;30789;52.030;7.110;2024-03-23T12:19:10;99905.94;;;10.78;62.08
34961;BME280;30789;52.030;7.110;2024-03-23T12:21:35;99906.66;;;10.89;61.74
34961;BME280;30789;52.030;7.110;2024-03-23T12:24:10;99892.75;;;11.03;60.98
34961;BME280;30789;52.030;7.110;2024-03-23T12:26:37;99891.03;;;11.19;61.66
34961;BME280;30789;52.030;7.110;2024-03-23T12:29:05;99877.03;;;11.00;59.26
34961;BME280;30789;52.030;7.110;2024-03-23T12:31:30;99878.25;;;10.99;62.15
34961;BME280;30789;52.030;7.110;2024-03-23T12:33:57;99890.03;;;11.43;60.28
34961;BME280;30789;52.030;7.110;2024-03-23T12:36:23;99873.38;;;11.54;58.64
34961;BME280;30789;52.030;7.110;2024-03-23T12:38:50;99870.50;;;11.24;58.18
34961;BME280;30789;52.030;7.110;2024-03-23T12:41:15;99877.97;;;11.27;57.31
34961;BME280;30789;52.030;7.110;2024-03-23T12:43:47;99877.44;;;11.02;57.54
34961;BME280;30789;52.030;7.110;2024-03-23T12:46:13;99890.03;;;10.41;60.25
34961;BME280;30789;52.030;7.110;2024-03-23T12:48:39;99926.09;;;9.67;61.12
34961;BME280;30789;52.030;7.110;2024-03-23T12:51:05;99908.88;;;8.72;62.61
34961;BME280;30789;52.030;7.110;2024-03-23T12:53:34;99898.91;;;8.22;67.90
34961;BME280;30789;52.030;7.110;2024-03-23T12:56:00;99885.31;;;8.60;67.67
34961;BME280;30789;52.030;7.110;2024-03-23T12:58:27;99873.84;;;9.60;61.85
34961;BME280;30789;52.030;7.110;2024-03-23T13:00:54;99870.59;;;11.17;58.73
34961;BME280;30789;52.030;7.110;2024-03-23T13:03:23;99872.56;;;13.04;50.50
34961;BME280;30789;52.030;7.110;2024-03-23T13:05:51;99870.38;;;14.00;48.06
34961;BME280;30789;52.030;7.110;2024-03-23T13:08:22;99868.25;;;13.88;47.34
34961;BME280;30789;52.030;7.110;2024-03-23T13:10:51;99876.19;;;13.66;47.09
34961;BME280;30789;52.030;7.110;2024-03-23T13:13:18;99876.78;;;11.68;50.59
34961;BME280;30789;52.030;7.110;2024-03-23T13:15:49;99878.78;;;11.68;51.34
34961;BME280;30789;52.030;7.110;2024-03-23T13:18:17;99871.69;;;12.57;50.07
34961;BME280;30789;52.030;7.110;2024-03-23T13:20:44;99889.88;;;13.73;47.12
34961;BME280;30789;52.030;7.110;2024-03-23T13:23:10;99872.06;;;13.74;47.37
34961;BME280;30789;52.030;7.110;2024-03-23T13:25:36;99874.91;;;13.28;48.79
34961;BME280;30789;52.030;7.110;2024-03-23T13:28:03;99863.31;;;11.37;52.40
34961;BME280;30789;52.030;7.110;2024-03-23T13:30:29;99870.16;;;10.12;57.46
34961;BME280;30789;52.030;7.110;2024-03-23T13:32:56;99880.53;;;9.56;60.27
34961;BME280;30789;52.030;7.110;2024-03-23T13:35:23;99908.88;;;9.00;59.55
34961;BME280;30789;52.030;7.110;2024-03-23T13:37:49;99886.84;;;8.51;59.48
34961;BME280;30789;52.030;7.110;2024-03-23T13:40:15;99870.16;;;10.02;57.22
34961;BME280;30789;52.030;7.110;2024-03-23T13:42:42;99873.03;;;10.53;50.29
34961;BME280;30789;52.030;7.110;2024-03-23T13:45:08;99875.19;;;11.71;47.85
34961;BME280;30789;52.030;7.110;2024-03-23T13:47:38;99867.41;;;12.26;46.93
34961;BME280;30789;52.030;7.110;2024-03-23T13:50:07;99874.94;;;13.48;45.69
34961;BME280;30789;52.030;7.110;2024-03-23T13:52:37;99873.81;;;14.43;44.09
34961;BME280;30789;52.030;7.110;2024-03-23T13:55:03;99862.41;;;13.63;45.12
34961;BME280;30789;52.030;7.110;2024-03-23T13:57:32;99871.72;;;13.30;46.79
34961;BME280;30789;52.030;7.110;2024-03-23T14:00:00;99867.78;;;13.50;45.78
34961;BME280;30789;52.030;7.110;2024-03-23T14:02:29;99866.38;;;14.01;46.35
34961;BME280;30789;52.030;7.110;2024-03-23T14:04:55;99882.00;;;14.31;44.05
34961;BME280;30789;52.030;7.110;2024-03-23T14:07:22;99871.94;;;14.56;44.36
34961;BME280;30789;52.030;7.110;2024-03-23T14:09:49;99881.97;;;15.02;44.11
34961;BME280;30789;52.030;7.110;2024-03-23T14:12:20;99871.34;;;13.28;45.15
34961;BME280;30789;52.030;7.110;2024-03-23T14:14:46;99861.44;;;13.07;46.25
34961;BME280;30789;52.030;7.110;2024-03-23T14:17:12;99855.75;;;12.12;48.46
34961;BME280;30789;52.030;7.110;2024-03-23T14:19:39;99858.03;;;12.73;48.44
34961;BME280;30789;52.030;7.110;2024-03-23T14:22:06;99855.03;;;14.35;46.58
34961;BME280;30789;52.030;7.110;2024-03-23T14:24:32;99867.97;;;15.05;41.99
34961;BME280;30789;52.030;7.110;2024-03-23T14:27:00;99858.72;;;15.12;42.06
34961;BME280;30789;52.030;7.110;2024-03-23T14:29:30;99845.72;;;13.66;43.94
34961;BME280;30789;52.030;7.110;2024-03-23T14:34:37;99855.59;;;11.18;52.55
34961;BME280;30789;52.030;7.110;2024-03-23T14:37:24;99852.00;;;10.22;54.51
34961;BME280;30789;52.030;7.110;2024-03-23T14:40:13;99854.59;;;9.64;57.81
34961;BME280;30789;52.030;7.110;2024-03-23T14:46:32;99852.34;;;9.06;58.99
34961;BME280;30789;52.030;7.110;2024-03-23T14:49:15;99856.28;;;8.95;61.79
34961;BME280;30789;52.030;7.110;2024-03-23T14:51:44;99845.69;;;8.86;61.89
34961;BME280;30789;52.030;7.110;2024-03-23T14:54:24;99848.03;;;8.66;64.01
34961;BME280;30789;52.030;7.110;2024-03-23T14:57:00;99854.31;;;8.63;66.33
34961;BME280;30789;52.030;7.110;2024-03-23T15:00:06;99866.44;;;8.27;69.90
34961;BME280;30789;52.030;7.110;2024-03-23T15:02:45;99859.94;;;7.71;72.76
34961;BME280;30789;52.030;7.110;2024-03-23T15:05:14;99875.25;;;7.18;74.44
34961;BME280;30789;52.030;7.110;2024-03-23T15:07:57;99859.22;;;7.13;75.17
34961;BME280;30789;52.030;7.110;2024-03-23T15:17:58;99848.44;;;8.58;69.84
34961;BME280;30789;52.030;7.110;2024-03-23T15:21:40;99855.13;;;8.92;70.13
34961;BME280;30789;52.030;7.110;2024-03-23T15:24:07;99849.16;;;9.32;69.57
34961;BME280;30789;52.030;7.110;2024-03-23T15:27:25;99855.34;;;9.71;66.65
34961;BME280;30789;52.030;7.110;2024-03-23T15:33:26;99845.66;;;9.25;68.67
34961;BME280;30789;52.030;7.110;2024-03-23T15:36:23;99848.84;;;8.71;71.01
34961;BME280;30789;52.030;7.110;2024-03-23T15:39:35;99848.41;;;8.44;73.12
34961;BME280;30789;52.030;7.110;2024-03-23T15:42:10;99852.34;;;8.50;74.56
34961;BME280;30789;52.030;7.110;2024-03-23T15:44:59;99862.94;;;9.08;73.38
34961;BME280;30789;52.030;7.110;2024-03-23T15:48:35;99863.28;;;9.45;67.20
34961;BME280;30789;52.030;7.110;2024-03-23T15:51:56;99855.88;;;10.31;64.43
34961;BME280;30789;52.030;7.110;2024-03-23T15:57:34;99845.56;;;10.46;59.62
34961;BME280;30789;52.030;7.110;2024-03-23T16:00:44;99847.41;;;9.87;62.77
34961;BME280;30789;52.030;7.110;2024-03-23T16:03:26;99844.81;;;9.45;64.33
34961;BME280;30789;52.030;7.110;2024-03-23T16:09:13;99841.75;;;8.48;67.54
34961;BME280;30789;52.030;7.110;2024-03-23T16:11:54;99847.53;;;8.19;67.67
34961;BME280;30789;52.030;7.110;2024-03-23T16:14:31;99835.78;;;8.18;69.22
34961;BME280;30789;52.030;7.110;2024-03-23T16:16:58;99825.53;;;7.91;69.94
34961;BME280;30789;52.030;7.110;2024-03-23T16:19:49;99816.22;;;8.23;69.08
34961;BME280;30789;52.030;7.110;2024-03-23T16:22:16;99817.81;;;8.35;68.91
34961;BME280;30789;52.030;7.110;2024-03-23T16:24:51;99806.75;;;8.17;69.35
34961;BME280;30789;52.030;7.110;2024-03-23T16:27:28;99804.41;;;8.09;69.88
34961;BME280;30789;52.030;7.110;2024-03-23T16:29:55;99807.22;;;8.44;67.43
34961;BME280;30789;52.030;7.110;2024-03-23T16:32:22;99808.41;;;8.89;65.57
34961;BME280;30789;52.030;7.110;2024-03-23T16:35:09;99800.56;;;8.55;65.79
34961;BME280;30789;52.030;7.110;2024-03-23T16:38:16;99808.44;;;8.68;64.98
34961;BME280;30789;52.030;7.110;2024-03-23T16:41:08;99812.72;;;8.58;66.14
34961;BME280;30789;52.030;7.110;2024-03-23T16:43:43;99820.16;;;8.36;68.38
34961;BME280;30789;52.030;7.110;2024-03-23T16:46:13;99817.00;;;8.31;69.80
34961;BME280;30789;52.030;7.110;2024-03-23T16:48:49;99817.59;;;7.65;72.25
34961;BME280;30789;52.030;7.110;2024-03-23T16:51:20;99810.09;;;7.55;72.56
34961;BME280;30789;52.030;7.110;2024-03-23T16:53:56;99816.66;;;7.33;73.80
34961;BME280;30789;52.030;7.110;2024-03-23T16:56:33;99814.59;;;7.16;74.04
34961;BME280;30789;52.030;7.110;2024-03-23T16:59:09;99826.28;;;7.09;73.95
34961;BME280;30789;52.030;7.110;2024-03-23T17:01:35;99810.06;;;6.83;75.08
34961;BME280;30789;52.030;7.110;2024-03-23T17:04:09;99813.13;;;6.71;74.13
34961;BME280;30789;52.030;7.110;2024-03-23T17:07:06;99816.16;;;6.59;74.53
34961;BME280;30789;52.030;7.110;2024-03-23T17:09:52;99816.13;;;6.55;75.23
34961;BME280;30789;52.030;7.110;2024-03-23T17:12:28;99830.56;;;6.52;75.35
34961;BME280;30789;52.030;7.110;2024-03-23T17:14:56;99828.63;;;6.53;76.11
34961;BME280;30789;52.030;7.110;2024-03-23T17:17:22;99835.66;;;6.54;78.36
34961;BME280;30789;52.030;7.110;2024-03-23T17:20:12;99829.50;;;6.67;78.97
34961;BME280;30789;52.030;7.110;2024-03-23T17:22:48;99828.03;;;6.77;78.89
34961;BME280;30789;52.030;7.110;2024-03-23T17:25:34;99822.81;;;6.61;79.19
34961;BME280;30789;52.030;7.110;2024-03-23T17:28:41;99828.13;;;6.44;79.51
34961;BME280;30789;52.030;7.110;2024-03-23T17:31:38;99820.94;;;6.25;79.32
34961;BME280;30789;52.030;7.110;2024-03-23T17:34:08;99821.16;;;6.10;81.14
34961;BME280;30789;52.030;7.110;2024-03-23T17:36:38;99826.63;;;6.10;81.77
34961;BME280;30789;52.030;7.110;2024-03-23T17:39:23;99818.31;;;5.99;82.93
34961;BME280;30789;52.030;7.110;2024-03-23T17:41:57;99824.03;;;5.87;84.66
34961;BME280;30789;52.030;7.110;2024-03-23T17:44:46;99820.97;;;5.92;84.80
34961;BME280;30789;52.030;7.110;2024-03-23T18:39:21;99832.66;;;5.30;89.58
34961;BME280;30789;52.030;7.110;2024-03-23T18:42:08;99834.28;;;5.35;89.70
34961;BME280;30789;52.030;7.110;2024-03-23T18:48:43;99838.78;;;5.50;90.26
34961;BME280;30789;52.030;7.110;2024-03-23T18:54:40;99839.72;;;5.61;90.37
34961;BME280;30789;52.030;7.110;2024-03-23T18:57:34;99844.00;;;5.62;90.28
34961;BME280;30789;52.030;7.110;2024-03-23T19:00:43;99844.44;;;5.64;88.88
34961;BME280;30789;52.030;7.110;2024-03-23T19:03:12;99850.63;;;5.61;89.25
34961;BME280;30789;52.030;7.110;2024-03-23T19:15:46;99820.66;;;5.38;89.34
34961;BME280;30789;52.030;7.110;2024-03-23T21:09:19;99761.31;;;4.27;95.49
